Kuala Belait, Brunei
Current Conditions -  °F | °C
As of 10:00 PM on Wednesday 28 Jan 2015 (Local Time) from WBGR Reporting Station
Broken Clouds Broken Clouds  
Wind Chill: 79°   Ceiling: 15000
Heat Index: 82°   Visibility: 6mi
Dew Point: 75°   Wind: 5mph
Humidity: 89%   Direction: 40°NE
Pressure: 29.85"   Gusts: NA
Location:  4.59°N, 114.18°E
Report Text: WBGR 281400Z 04004KT 9999 FEW014 BKN150 26/24 Q1011
Loading
Personal Weather Stations






























Interactive Weather Map New forecast layout! Learn more

10-Day Weather Forecast

Advertisements
Track Severe Weather on mobile